sensor_id;sensor_type;location;lat;lon;timestamp;pressure;altitude;pressure_sealevel;temperature;humidity
31483;BME280;18103;52.246;8.052;2023-02-01T00:02:03;100521.91;;;4.28;80.88
31483;BME280;18103;52.246;8.052;2023-02-01T00:04:29;100536.50;;;4.32;81.02
31483;BME280;18103;52.246;8.052;2023-02-01T00:06:55;100531.00;;;4.38;80.50
31483;BME280;18103;52.246;8.052;2023-02-01T00:09:21;100542.19;;;4.40;80.53
31483;BME280;18103;52.246;8.052;2023-02-01T00:11:46;100538.69;;;4.41;80.40
31483;BME280;18103;52.246;8.052;2023-02-01T00:14:11;100541.28;;;4.41;80.26
31483;BME280;18103;52.246;8.052;2023-02-01T00:16:37;100537.84;;;4.41;80.30
31483;BME280;18103;52.246;8.052;2023-02-01T00:19:13;100540.28;;;4.44;80.07
31483;BME280;18103;52.246;8.052;2023-02-01T00:21:39;100529.06;;;4.42;80.26
31483;BME280;18103;52.246;8.052;2023-02-01T00:24:05;100531.31;;;4.50;79.42
31483;BME280;18103;52.246;8.052;2023-02-01T00:29:02;100526.91;;;4.50;79.17
31483;BME280;18103;52.246;8.052;2023-02-01T00:31:28;100522.47;;;4.52;79.34
31483;BME280;18103;52.246;8.052;2023-02-01T00:33:54;100514.69;;;4.51;79.09
31483;BME280;18103;52.246;8.052;2023-02-01T00:36:19;100508.69;;;4.49;79.51
31483;BME280;18103;52.246;8.052;2023-02-01T00:38:44;100508.53;;;4.52;79.54
31483;BME280;18103;52.246;8.052;2023-02-01T00:41:15;100514.84;;;4.48;79.50
31483;BME280;18103;52.246;8.052;2023-02-01T00:43:41;100500.94;;;4.47;79.56
31483;BME280;18103;52.246;8.052;2023-02-01T00:46:11;100502.72;;;4.47;79.77
31483;BME280;18103;52.246;8.052;2023-02-01T00:48:37;100506.00;;;4.50;79.54
31483;BME280;18103;52.246;8.052;2023-02-01T00:51:08;100509.56;;;4.49;79.42
31483;BME280;18103;52.246;8.052;2023-02-01T00:53:34;100499.09;;;4.49;79.88
31483;BME280;18103;52.246;8.052;2023-02-01T00:56:00;100493.09;;;4.47;79.74
31483;BME280;18103;52.246;8.052;2023-02-01T00:58:25;100491.38;;;4.46;79.95
31483;BME280;18103;52.246;8.052;2023-02-01T01:01:24;100501.63;;;4.51;79.83
31483;BME280;18103;52.246;8.052;2023-02-01T01:04:00;100499.41;;;4.43;79.87
31483;BME280;18103;52.246;8.052;2023-02-01T01:06:31;100500.19;;;4.45;79.78
31483;BME280;18103;52.246;8.052;2023-02-01T01:08:59;100493.56;;;4.55;79.28
31483;BME280;18103;52.246;8.052;2023-02-01T01:11:29;100499.41;;;4.43;79.85
31483;BME280;18103;52.246;8.052;2023-02-01T01:13:56;100495.16;;;4.40;79.74
31483;BME280;18103;52.246;8.052;2023-02-01T01:16:23;100495.78;;;4.45;79.01
31483;BME280;18103;52.246;8.052;2023-02-01T01:18:49;100504.69;;;4.41;79.64
31483;BME280;18103;52.246;8.052;2023-02-01T01:21:15;100500.38;;;4.40;79.66
31483;BME280;18103;52.246;8.052;2023-02-01T01:23:42;100503.16;;;4.37;79.46
31483;BME280;18103;52.246;8.052;2023-02-01T01:26:11;100505.53;;;4.42;79.39
31483;BME280;18103;52.246;8.052;2023-02-01T01:28:37;100515.22;;;4.40;79.39
31483;BME280;18103;52.246;8.052;2023-02-01T01:31:04;100514.59;;;4.35;79.35
31483;BME280;18103;52.246;8.052;2023-02-01T01:33:32;100513.63;;;4.37;79.52
31483;BME280;18103;52.246;8.052;2023-02-01T01:35:57;100511.00;;;4.37;79.94
31483;BME280;18103;52.246;8.052;2023-02-01T01:38:23;100505.84;;;4.36;79.75
31483;BME280;18103;52.246;8.052;2023-02-01T01:40:48;100496.31;;;4.35;80.01
31483;BME280;18103;52.246;8.052;2023-02-01T01:43:19;100484.13;;;4.35;79.73
31483;BME280;18103;52.246;8.052;2023-02-01T01:45:47;100486.78;;;4.34;79.96
31483;BME280;18103;52.246;8.052;2023-02-01T01:50:50;100483.16;;;4.36;80.00
31483;BME280;18103;52.246;8.052;2023-02-01T01:53:20;100479.72;;;4.36;80.01
31483;BME280;18103;52.246;8.052;2023-02-01T01:55:48;100475.19;;;4.39;80.07
31483;BME280;18103;52.246;8.052;2023-02-01T01:58:18;100477.88;;;4.38;79.91
31483;BME280;18103;52.246;8.052;2023-02-01T02:00:45;100471.63;;;4.40;79.88
31483;BME280;18103;52.246;8.052;2023-02-01T02:03:15;100461.19;;;4.40;80.24
31483;BME280;18103;52.246;8.052;2023-02-01T02:05:43;100455.88;;;4.42;80.18
31483;BME280;18103;52.246;8.052;2023-02-01T02:08:09;100464.75;;;4.39;80.34
31483;BME280;18103;52.246;8.052;2023-02-01T02:10:36;100451.44;;;4.44;80.27
31483;BME280;18103;52.246;8.052;2023-02-01T02:13:20;100453.25;;;4.42;80.25
31483;BME280;18103;52.246;8.052;2023-02-01T02:16:02;100444.25;;;4.48;80.20
31483;BME280;18103;52.246;8.052;2023-02-01T02:21:14;100433.81;;;4.48;80.45
31483;BME280;18103;52.246;8.052;2023-02-01T02:26:53;100429.97;;;4.55;80.30
31483;BME280;18103;52.246;8.052;2023-02-01T02:35:11;100419.28;;;4.59;80.27
31483;BME280;18103;52.246;8.052;2023-02-01T02:43:08;100410.72;;;4.73;79.82
31483;BME280;18103;52.246;8.052;2023-02-01T02:46:22;100415.69;;;4.78;79.51
31483;BME280;18103;52.246;8.052;2023-02-01T02:49:18;100403.59;;;4.75;79.74
31483;BME280;18103;52.246;8.052;2023-02-01T02:51:50;100398.38;;;4.75;79.51
31483;BME280;18103;52.246;8.052;2023-02-01T02:54:41;100403.31;;;4.82;79.48
31483;BME280;18103;52.246;8.052;2023-02-01T02:57:16;100397.28;;;4.79;79.73
31483;BME280;18103;52.246;8.052;2023-02-01T03:00:06;100406.84;;;4.80;79.51
31483;BME280;18103;52.246;8.052;2023-02-01T03:02:51;100398.06;;;4.82;79.52
31483;BME280;18103;52.246;8.052;2023-02-01T03:05:39;100408.53;;;4.82;79.46
31483;BME280;18103;52.246;8.052;2023-02-01T03:08:13;100401.50;;;4.82;79.97
31483;BME280;18103;52.246;8.052;2023-02-01T03:19:09;100384.75;;;4.86;79.32
31483;BME280;18103;52.246;8.052;2023-02-01T03:21:50;100371.84;;;4.83;79.92
31483;BME280;18103;52.246;8.052;2023-02-01T03:24:31;100358.50;;;4.88;79.31
31483;BME280;18103;52.246;8.052;2023-02-01T03:27:23;100362.91;;;4.87;79.39
31483;BME280;18103;52.246;8.052;2023-02-01T03:32:36;100351.66;;;4.85;79.46
31483;BME280;18103;52.246;8.052;2023-02-01T03:35:33;100362.03;;;4.87;79.60
31483;BME280;18103;52.246;8.052;2023-02-01T03:40:42;100354.28;;;4.85;79.59
31483;BME280;18103;52.246;8.052;2023-02-01T03:43:14;100346.34;;;4.87;79.53
31483;BME280;18103;52.246;8.052;2023-02-01T03:45:44;100347.38;;;4.84;79.34
31483;BME280;18103;52.246;8.052;2023-02-01T03:48:13;100350.00;;;4.84;79.45
31483;BME280;18103;52.246;8.052;2023-02-01T03:50:44;100347.44;;;4.83;79.88
31483;BME280;18103;52.246;8.052;2023-02-01T03:53:14;100346.69;;;4.80;80.01
31483;BME280;18103;52.246;8.052;2023-02-01T03:55:42;100336.22;;;4.80;79.98
31483;BME280;18103;52.246;8.052;2023-02-01T03:58:19;100326.69;;;4.79;80.26
31483;BME280;18103;52.246;8.052;2023-02-01T04:01:05;100340.63;;;4.80;80.21
31483;BME280;18103;52.246;8.052;2023-02-01T04:03:30;100340.72;;;4.78;80.41
31483;BME280;18103;52.246;8.052;2023-02-01T04:05:57;100338.16;;;4.77;80.51
31483;BME280;18103;52.246;8.052;2023-02-01T04:08:24;100340.78;;;4.77;80.76
31483;BME280;18103;52.246;8.052;2023-02-01T04:10:50;100342.72;;;4.73;80.83
31483;BME280;18103;52.246;8.052;2023-02-01T04:13:15;100336.72;;;4.71;82.70
31483;BME280;18103;52.246;8.052;2023-02-01T04:15:41;100336.06;;;4.68;83.50
31483;BME280;18103;52.246;8.052;2023-02-01T04:18:06;100328.38;;;4.65;83.43
31483;BME280;18103;52.246;8.052;2023-02-01T04:20:31;100323.91;;;4.67;83.20
31483;BME280;18103;52.246;8.052;2023-02-01T04:22:57;100339.75;;;4.63;83.17
31483;BME280;18103;52.246;8.052;2023-02-01T04:25:23;100325.81;;;4.63;83.34
31483;BME280;18103;52.246;8.052;2023-02-01T04:27:48;100326.69;;;4.63;82.94
31483;BME280;18103;52.246;8.052;2023-02-01T04:30:14;100331.75;;;4.67;83.54
31483;BME280;18103;52.246;8.052;2023-02-01T04:32:40;100318.84;;;4.63;83.69
31483;BME280;18103;52.246;8.052;2023-02-01T04:35:06;100328.69;;;4.58;83.61
31483;BME280;18103;52.246;8.052;2023-02-01T04:37:32;100320.78;;;4.60;84.07
31483;BME280;18103;52.246;8.052;2023-02-01T04:39:57;100320.13;;;4.56;84.18
31483;BME280;18103;52.246;8.052;2023-02-01T04:42:23;100312.94;;;4.60;83.95
31483;BME280;18103;52.246;8.052;2023-02-01T04:44:48;100298.25;;;4.57;83.47
31483;BME280;18103;52.246;8.052;2023-02-01T04:47:14;100299.94;;;4.58;83.96
31483;BME280;18103;52.246;8.052;2023-02-01T04:49:40;100312.09;;;4.59;83.82
31483;BME280;18103;52.246;8.052;2023-02-01T04:52:06;100292.09;;;4.58;83.78
31483;BME280;18103;52.246;8.052;2023-02-01T04:54:31;100294.63;;;4.60;83.47
31483;BME280;18103;52.246;8.052;2023-02-01T04:56:56;100300.63;;;4.62;83.60
31483;BME280;18103;52.246;8.052;2023-02-01T04:59:22;100304.84;;;4.65;83.89
31483;BME280;18103;52.246;8.052;2023-02-01T05:01:47;100300.81;;;4.59;84.33
31483;BME280;18103;52.246;8.052;2023-02-01T05:04:13;100303.47;;;4.57;84.08
31483;BME280;18103;52.246;8.052;2023-02-01T05:06:38;100292.28;;;4.55;84.54
31483;BME280;18103;52.246;8.052;2023-02-01T05:09:03;100291.34;;;4.56;85.40
31483;BME280;18103;52.246;8.052;2023-02-01T05:11:29;100284.53;;;4.54;85.14
31483;BME280;18103;52.246;8.052;2023-02-01T05:14:23;100275.81;;;4.53;85.42
31483;BME280;18103;52.246;8.052;2023-02-01T05:16:49;100281.91;;;4.54;85.89
31483;BME280;18103;52.246;8.052;2023-02-01T05:19:14;100281.03;;;4.53;85.88
31483;BME280;18103;52.246;8.052;2023-02-01T05:21:39;100282.09;;;4.51;85.90
31483;BME280;18103;52.246;8.052;2023-02-01T05:24:05;100279.22;;;4.55;86.59
31483;BME280;18103;52.246;8.052;2023-02-01T05:26:45;100269.75;;;4.53;86.68
31483;BME280;18103;52.246;8.052;2023-02-01T05:29:11;100274.81;;;4.56;86.40
31483;BME280;18103;52.246;8.052;2023-02-01T05:31:38;100280.22;;;4.53;86.02
31483;BME280;18103;52.246;8.052;2023-02-01T05:34:03;100256.50;;;4.56;86.20
31483;BME280;18103;52.246;8.052;2023-02-01T05:36:29;100265.22;;;4.56;86.56
31483;BME280;18103;52.246;8.052;2023-02-01T05:38:55;100265.44;;;4.52;86.07
31483;BME280;18103;52.246;8.052;2023-02-01T05:41:20;100263.34;;;4.58;86.22
31483;BME280;18103;52.246;8.052;2023-02-01T05:43:46;100265.22;;;4.56;85.66
31483;BME280;18103;52.246;8.052;2023-02-01T05:46:12;100275.69;;;4.56;86.11
31483;BME280;18103;52.246;8.052;2023-02-01T05:48:42;100280.03;;;4.56;86.50
31483;BME280;18103;52.246;8.052;2023-02-01T05:51:08;100283.66;;;4.53;86.44
31483;BME280;18103;52.246;8.052;2023-02-01T05:53:34;100275.00;;;4.53;86.48
31483;BME280;18103;52.246;8.052;2023-02-01T05:55:59;100272.38;;;4.53;87.07
31483;BME280;18103;52.246;8.052;2023-02-01T05:58:25;100278.44;;;4.53;86.62
31483;BME280;18103;52.246;8.052;2023-02-01T06:00:50;100278.44;;;4.53;87.02
31483;BME280;18103;52.246;8.052;2023-02-01T06:03:15;100269.84;;;4.51;86.94
31483;BME280;18103;52.246;8.052;2023-02-01T06:05:43;100254.06;;;4.53;86.64
31483;BME280;18103;52.246;8.052;2023-02-01T06:08:09;100268.06;;;4.52;86.62
31483;BME280;18103;52.246;8.052;2023-02-01T06:10:34;100276.78;;;4.52;86.73
31483;BME280;18103;52.246;8.052;2023-02-01T06:13:00;100274.06;;;4.54;86.49
31483;BME280;18103;52.246;8.052;2023-02-01T06:15:25;100270.59;;;4.53;86.41
31483;BME280;18103;52.246;8.052;2023-02-01T06:17:50;100285.97;;;4.59;86.27
31483;BME280;18103;52.246;8.052;2023-02-01T06:20:16;100292.19;;;4.57;86.08
31483;BME280;18103;52.246;8.052;2023-02-01T06:22:42;100304.09;;;4.62;85.70
31483;BME280;18103;52.246;8.052;2023-02-01T06:25:09;100308.41;;;4.63;85.91
31483;BME280;18103;52.246;8.052;2023-02-01T06:27:35;100308.41;;;4.63;85.81
31483;BME280;18103;52.246;8.052;2023-02-01T06:30:04;100294.41;;;4.65;85.07
31483;BME280;18103;52.246;8.052;2023-02-01T06:32:30;100294.41;;;4.65;85.30
31483;BME280;18103;52.246;8.052;2023-02-01T06:34:55;100302.06;;;4.68;85.15
31483;BME280;18103;52.246;8.052;2023-02-01T06:37:22;100303.59;;;4.72;84.83
31483;BME280;18103;52.246;8.052;2023-02-01T06:39:48;100313.97;;;4.73;84.87
31483;BME280;18103;52.246;8.052;2023-02-01T06:42:14;100308.72;;;4.73;84.56
31483;BME280;18103;52.246;8.052;2023-02-01T06:44:39;100314.63;;;4.77;84.46
31483;BME280;18103;52.246;8.052;2023-02-01T06:47:05;100312.00;;;4.77;84.40
31483;BME280;18103;52.246;8.052;2023-02-01T06:49:30;100308.38;;;4.79;84.10
31483;BME280;18103;52.246;8.052;2023-02-01T06:51:56;100314.31;;;4.83;84.10
31483;BME280;18103;52.246;8.052;2023-02-01T06:54:21;100311.88;;;4.80;84.18
31483;BME280;18103;52.246;8.052;2023-02-01T06:56:47;100311.50;;;4.86;83.48
31483;BME280;18103;52.246;8.052;2023-02-01T06:59:12;100301.81;;;4.88;83.34
31483;BME280;18103;52.246;8.052;2023-02-01T07:01:38;100309.50;;;4.91;83.23
31483;BME280;18103;52.246;8.052;2023-02-01T07:04:04;100306.88;;;4.91;83.11
31483;BME280;18103;52.246;8.052;2023-02-01T07:06:29;100308.47;;;4.94;83.20
31483;BME280;18103;52.246;8.052;2023-02-01T07:08:54;100324.09;;;4.95;82.76
31483;BME280;18103;52.246;8.052;2023-02-01T07:11:21;100328.31;;;4.98;82.70
31483;BME280;18103;52.246;8.052;2023-02-01T07:13:47;100326.34;;;5.02;82.70
31483;BME280;18103;52.246;8.052;2023-02-01T07:16:15;100321.22;;;5.00;82.51
31483;BME280;18103;52.246;8.052;2023-02-01T07:18:42;100333.47;;;5.00;82.47
31483;BME280;18103;52.246;8.052;2023-02-01T07:21:08;100330.56;;;5.04;82.55
31483;BME280;18103;52.246;8.052;2023-02-01T07:23:34;100333.28;;;5.03;82.44
31483;BME280;18103;52.246;8.052;2023-02-01T07:26:01;100329.81;;;5.02;82.60
31483;BME280;18103;52.246;8.052;2023-02-01T07:28:29;100334.88;;;5.05;82.66
31483;BME280;18103;52.246;8.052;2023-02-01T07:33:29;100333.78;;;5.09;82.18
31483;BME280;18103;52.246;8.052;2023-02-01T07:35:55;100340.78;;;5.09;82.56
31483;BME280;18103;52.246;8.052;2023-02-01T07:38:20;100340.03;;;5.07;82.37
31483;BME280;18103;52.246;8.052;2023-02-01T07:40:47;100342.66;;;5.07;82.69
31483;BME280;18103;52.246;8.052;2023-02-01T07:43:13;100350.50;;;5.07;82.64
31483;BME280;18103;52.246;8.052;2023-02-01T07:45:39;100353.03;;;5.08;82.61
31483;BME280;18103;52.246;8.052;2023-02-01T07:48:04;100359.19;;;5.07;82.57
31483;BME280;18103;52.246;8.052;2023-02-01T07:50:30;100366.00;;;5.10;82.97
31483;BME280;18103;52.246;8.052;2023-02-01T07:52:58;100354.81;;;5.08;82.55
31483;BME280;18103;52.246;8.052;2023-02-01T07:55:23;100359.09;;;5.09;82.61
31483;BME280;18103;52.246;8.052;2023-02-01T07:57:49;100366.75;;;5.12;83.00
31483;BME280;18103;52.246;8.052;2023-02-01T08:00:15;100378.09;;;5.12;82.54
31483;BME280;18103;52.246;8.052;2023-02-01T08:03:00;100378.09;;;5.12;82.63
31483;BME280;18103;52.246;8.052;2023-02-01T08:05:25;100379.09;;;5.10;82.61
31483;BME280;18103;52.246;8.052;2023-02-01T08:07:51;100369.38;;;5.12;82.96
31483;BME280;18103;52.246;8.052;2023-02-01T08:10:17;100379.59;;;5.17;82.78
31483;BME280;18103;52.246;8.052;2023-02-01T08:12:43;100381.53;;;5.13;82.56
31483;BME280;18103;52.246;8.052;2023-02-01T08:15:08;100385.66;;;5.17;82.13
31483;BME280;18103;52.246;8.052;2023-02-01T08:17:34;100386.34;;;5.21;82.62
31483;BME280;18103;52.246;8.052;2023-02-01T08:19:59;100378.50;;;5.21;82.11
31483;BME280;18103;52.246;8.052;2023-02-01T08:22:25;100373.19;;;5.22;82.37
31483;BME280;18103;52.246;8.052;2023-02-01T08:24:50;100377.50;;;5.23;82.68
31483;BME280;18103;52.246;8.052;2023-02-01T08:27:17;100381.03;;;5.22;82.58
31483;BME280;18103;52.246;8.052;2023-02-01T08:29:42;100378.25;;;5.25;82.56
31483;BME280;18103;52.246;8.052;2023-02-01T08:32:07;100368.69;;;5.24;82.36
31483;BME280;18103;52.246;8.052;2023-02-01T08:34:33;100379.06;;;5.26;82.57
31483;BME280;18103;52.246;8.052;2023-02-01T08:36:58;100387.69;;;5.28;82.16
31483;BME280;18103;52.246;8.052;2023-02-01T08:39:24;100385.00;;;5.29;82.21
31483;BME280;18103;52.246;8.052;2023-02-01T08:41:50;100377.81;;;5.33;81.98
31483;BME280;18103;52.246;8.052;2023-02-01T08:44:34;100378.84;;;5.30;81.73
31483;BME280;18103;52.246;8.052;2023-02-01T08:47:00;100379.41;;;5.36;81.72
31483;BME280;18103;52.246;8.052;2023-02-01T08:49:25;100374.84;;;5.39;81.74
31483;BME280;18103;52.246;8.052;2023-02-01T08:51:50;100371.13;;;5.43;81.12
31483;BME280;18103;52.246;8.052;2023-02-01T08:54:16;100380.69;;;5.44;80.85
31483;BME280;18103;52.246;8.052;2023-02-01T08:56:41;100382.94;;;5.51;81.11
31483;BME280;18103;52.246;8.052;2023-02-01T08:59:06;100378.28;;;5.56;80.87
31483;BME280;18103;52.246;8.052;2023-02-01T09:01:32;100374.06;;;5.53;80.58
31483;BME280;18103;52.246;8.052;2023-02-01T09:03:57;100373.91;;;5.56;80.43
31483;BME280;18103;52.246;8.052;2023-02-01T09:06:22;100359.19;;;5.54;80.17
31483;BME280;18103;52.246;8.052;2023-02-01T09:08:48;100362.50;;;5.57;80.25
31483;BME280;18103;52.246;8.052;2023-02-01T09:11:17;100379.72;;;5.61;80.00
31483;BME280;18103;52.246;8.052;2023-02-01T09:13:44;100376.22;;;5.61;79.45
31483;BME280;18103;52.246;8.052;2023-02-01T09:16:09;100367.47;;;5.62;79.23
31483;BME280;18103;52.246;8.052;2023-02-01T09:18:35;100371.78;;;5.63;79.07
31483;BME280;18103;52.246;8.052;2023-02-01T09:21:06;100363.00;;;5.64;79.09
31483;BME280;18103;52.246;8.052;2023-02-01T09:23:32;100361.88;;;5.68;79.13
31483;BME280;18103;52.246;8.052;2023-02-01T09:26:02;100364.22;;;5.73;78.96
31483;BME280;18103;52.246;8.052;2023-02-01T09:28:28;100353.66;;;5.74;78.75
31483;BME280;18103;52.246;8.052;2023-02-01T09:31:00;100357.69;;;5.80;78.34
31483;BME280;18103;52.246;8.052;2023-02-01T09:33:26;100351.53;;;5.81;78.73
31483;BME280;18103;52.246;8.052;2023-02-01T09:35:57;100354.88;;;5.83;78.96
31483;BME280;18103;52.246;8.052;2023-02-01T09:38:22;100355.16;;;5.78;78.48
31483;BME280;18103;52.246;8.052;2023-02-01T09:40:48;100341.59;;;5.86;78.49
31483;BME280;18103;52.246;8.052;2023-02-01T09:43:36;100343.22;;;5.89;78.70
31483;BME280;18103;52.246;8.052;2023-02-01T09:46:21;100338.94;;;5.88;78.81
31483;BME280;18103;52.246;8.052;2023-02-01T09:48:49;100342.28;;;5.90;78.68
31483;BME280;18103;52.246;8.052;2023-02-01T09:51:27;100327.25;;;5.93;78.33
31483;BME280;18103;52.246;8.052;2023-02-01T09:54:20;100318.50;;;5.93;78.37
31483;BME280;18103;52.246;8.052;2023-02-01T09:57:03;100328.59;;;6.01;78.52
31483;BME280;18103;52.246;8.052;2023-02-01T09:59:43;100326.69;;;6.03;78.48
31483;BME280;18103;52.246;8.052;2023-02-01T10:02:17;100337.75;;;6.08;78.13
31483;BME280;18103;52.246;8.052;2023-02-01T10:04:43;100327.28;;;6.08;78.65
31483;BME280;18103;52.246;8.052;2023-02-01T10:09:50;100325.69;;;6.05;77.92
31483;BME280;18103;52.246;8.052;2023-02-01T10:18:13;100324.47;;;6.11;77.64
31483;BME280;18103;52.246;8.052;2023-02-01T10:28:20;100311.56;;;6.08;77.55
31483;BME280;18103;52.246;8.052;2023-02-01T10:30:48;100312.28;;;6.10;78.04
31483;BME280;18103;52.246;8.052;2023-02-01T10:33:34;100319.22;;;6.11;78.04
31483;BME280;18103;52.246;8.052;2023-02-01T10:36:15;100323.53;;;6.12;77.82
31483;BME280;18103;52.246;8.052;2023-02-01T10:38:42;100321.66;;;6.14;78.05
31483;BME280;18103;52.246;8.052;2023-02-01T10:41:15;100330.38;;;6.14;77.90
31483;BME280;18103;52.246;8.052;2023-02-01T10:43:42;100318.31;;;6.12;77.75
31483;BME280;18103;52.246;8.052;2023-02-01T10:46:08;100309.41;;;6.14;77.72
31483;BME280;18103;52.246;8.052;2023-02-01T10:48:34;100304.53;;;6.08;77.62
31483;BME280;18103;52.246;8.052;2023-02-01T10:51:04;100298.16;;;6.12;77.98
31483;BME280;18103;52.246;8.052;2023-02-01T10:53:50;100293.59;;;6.16;77.92
31483;BME280;18103;52.246;8.052;2023-02-01T10:56:23;100285.72;;;6.16;78.08
31483;BME280;18103;52.246;8.052;2023-02-01T10:58:49;100280.50;;;6.16;77.97
31483;BME280;18103;52.246;8.052;2023-02-01T11:01:20;100283.94;;;6.16;78.08
31483;BME280;18103;52.246;8.052;2023-02-01T11:03:56;100279.63;;;6.15;78.12
31483;BME280;18103;52.246;8.052;2023-02-01T11:06:41;100279.47;;;6.19;78.22
31483;BME280;18103;52.246;8.052;2023-02-01T11:11:35;100263.06;;;6.15;78.10
31483;BME280;18103;52.246;8.052;2023-02-01T11:14:33;100253.63;;;6.12;77.95
31483;BME280;18103;52.246;8.052;2023-02-01T11:17:01;100251.09;;;6.11;79.10
31483;BME280;18103;52.246;8.052;2023-02-01T11:19:37;100244.47;;;6.05;80.11
31483;BME280;18103;52.246;8.052;2023-02-01T11:22:04;100247.59;;;5.96;80.91
31483;BME280;18103;52.246;8.052;2023-02-01T11:24:36;100248.66;;;5.93;82.14
31483;BME280;18103;52.246;8.052;2023-02-01T11:27:05;100242.06;;;5.86;82.44
31483;BME280;18103;52.246;8.052;2023-02-01T11:29:38;100233.56;;;5.82;82.87
31483;BME280;18103;52.246;8.052;2023-02-01T11:32:08;100235.16;;;5.85;82.81
31483;BME280;18103;52.246;8.052;2023-02-01T11:34:38;100237.22;;;5.80;83.28
31483;BME280;18103;52.246;8.052;2023-02-01T11:37:15;100229.66;;;5.75;83.61
31483;BME280;18103;52.246;8.052;2023-02-01T11:39:42;100219.53;;;5.69;84.01
31483;BME280;18103;52.246;8.052;2023-02-01T11:42:14;100220.84;;;5.62;84.59
31483;BME280;18103;52.246;8.052;2023-02-01T11:44:45;100221.13;;;5.57;85.17
31483;BME280;18103;52.246;8.052;2023-02-01T11:47:31;100224.16;;;5.49;86.13
31483;BME280;18103;52.246;8.052;2023-02-01T11:50:12;100222.84;;;5.42;86.10
31483;BME280;18103;52.246;8.052;2023-02-01T12:00:31;100199.88;;;5.33;86.49
31483;BME280;18103;52.246;8.052;2023-02-01T12:11:04;100188.53;;;5.32;86.62
31483;BME280;18103;52.246;8.052;2023-02-01T12:19:28;100205.13;;;5.17;88.01
31483;BME280;18103;52.246;8.052;2023-02-01T12:22:04;100210.75;;;5.11;88.37
31483;BME280;18103;52.246;8.052;2023-02-01T12:24:46;100211.22;;;5.18;88.40
31483;BME280;18103;52.246;8.052;2023-02-01T12:38:18;100183.28;;;5.18;89.03
31483;BME280;18103;52.246;8.052;2023-02-01T12:43:40;100178.97;;;5.17;89.20
31483;BME280;18103;52.246;8.052;2023-02-01T12:46:12;100158.97;;;5.16;89.48
31483;BME280;18103;52.246;8.052;2023-02-01T12:48:41;100152.81;;;5.17;90.24
31483;BME280;18103;52.246;8.052;2023-02-01T12:51:13;100150.28;;;5.16;90.07
31483;BME280;18103;52.246;8.052;2023-02-01T12:53:51;100146.13;;;5.27;90.40
31483;BME280;18103;52.246;8.052;2023-02-01T12:56:23;100142.34;;;5.31;89.81
31483;BME280;18103;52.246;8.052;2023-02-01T12:58:53;100121.78;;;5.25;89.61
31483;BME280;18103;52.246;8.052;2023-02-01T13:01:40;100137.22;;;5.30;89.73
31483;BME280;18103;52.246;8.052;2023-02-01T13:04:11;100134.88;;;5.25;89.34
31483;BME280;18103;52.246;8.052;2023-02-01T13:06:53;100121.78;;;5.25;89.90
31483;BME280;18103;52.246;8.052;2023-02-01T13:09:30;100118.50;;;5.22;90.09
31483;BME280;18103;52.246;8.052;2023-02-01T13:12:03;100110.59;;;5.23;90.27
31483;BME280;18103;52.246;8.052;2023-02-01T13:14:42;100111.34;;;5.25;89.99
31483;BME280;18103;52.246;8.052;2023-02-01T13:17:27;100112.63;;;5.32;90.24
31483;BME280;18103;52.246;8.052;2023-02-01T13:20:00;100119.19;;;5.40;90.03
31483;BME280;18103;52.246;8.052;2023-02-01T13:24:58;100117.88;;;5.47;89.74
31483;BME280;18103;52.246;8.052;2023-02-01T13:27:29;100123.78;;;5.51;89.98
31483;BME280;18103;52.246;8.052;2023-02-01T13:30:16;100140.50;;;5.48;89.71
31483;BME280;18103;52.246;8.052;2023-02-01T13:33:15;100134.53;;;5.46;89.69
31483;BME280;18103;52.246;8.052;2023-02-01T13:41:59;100168.47;;;5.47;89.51
31483;BME280;18103;52.246;8.052;2023-02-01T13:44:32;100175.66;;;5.44;89.63
31483;BME280;18103;52.246;8.052;2023-02-01T13:47:02;100178.06;;;5.47;90.08
31483;BME280;18103;52.246;8.052;2023-02-01T13:49:37;100187.81;;;5.45;90.12
31483;BME280;18103;52.246;8.052;2023-02-01T13:52:04;100186.88;;;5.46;90.11
31483;BME280;18103;52.246;8.052;2023-02-01T13:54:37;100198.19;;;5.46;90.54
31483;BME280;18103;52.246;8.052;2023-02-01T13:57:05;100194.66;;;5.47;89.82
31483;BME280;18103;52.246;8.052;2023-02-01T14:05:11;100199.59;;;5.38;89.42
31483;BME280;18103;52.246;8.052;2023-02-01T14:10:54;100193.13;;;5.29;88.72
31483;BME280;18103;52.246;8.052;2023-02-01T14:13:38;100198.22;;;5.16;88.22
31483;BME280;18103;52.246;8.052;2023-02-01T14:26:41;100203.81;;;5.10;87.17
31483;BME280;18103;52.246;8.052;2023-02-01T14:31:52;100194.75;;;5.16;87.04
31483;BME280;18103;52.246;8.052;2023-02-01T14:50:31;100224.97;;;5.36;87.24
31483;BME280;18103;52.246;8.052;2023-02-01T14:56:00;100236.88;;;5.41;87.10
31483;BME280;18103;52.246;8.052;2023-02-01T15:01:05;100229.06;;;5.56;87.37
31483;BME280;18103;52.246;8.052;2023-02-01T15:03:58;100224.56;;;5.58;87.25
31483;BME280;18103;52.246;8.052;2023-02-01T15:06:30;100221.03;;;5.59;87.18
31483;BME280;18103;52.246;8.052;2023-02-01T15:09:02;100226.25;;;5.59;87.01
31483;BME280;18103;52.246;8.052;2023-02-01T15:11:28;100231.13;;;5.65;86.71
31483;BME280;18103;52.246;8.052;2023-02-01T15:13:54;100224.66;;;5.56;86.83
31483;BME280;18103;52.246;8.052;2023-02-01T15:16:23;100237.41;;;5.62;86.54
31483;BME280;18103;52.246;8.052;2023-02-01T15:18:50;100242.97;;;5.56;86.91
31483;BME280;18103;52.246;8.052;2023-02-01T15:21:21;100249.91;;;5.57;87.36
31483;BME280;18103;52.246;8.052;2023-02-01T15:23:47;100247.88;;;5.62;87.64
31483;BME280;18103;52.246;8.052;2023-02-01T15:26:27;100253.84;;;5.64;87.77
31483;BME280;18103;52.246;8.052;2023-02-01T15:28:54;100249.44;;;5.65;87.96
31483;BME280;18103;52.246;8.052;2023-02-01T15:31:32;100244.88;;;5.69;88.18
31483;BME280;18103;52.246;8.052;2023-02-01T15:33:58;100253.56;;;5.69;87.52
31483;BME280;18103;52.246;8.052;2023-02-01T15:36:24;100251.53;;;5.74;87.75
31483;BME280;18103;52.246;8.052;2023-02-01T15:42:12;100257.69;;;5.73;87.08
31483;BME280;18103;52.246;8.052;2023-02-01T15:44:44;100261.16;;;5.74;86.84